createdAt,value
2017-07-25T00:00:04.403Z,15.10
2017-07-25T00:02:31.936Z,15.10
2017-07-25T00:04:59.524Z,15.00
2017-07-25T00:07:27.061Z,15.10
2017-07-25T00:09:54.740Z,15.10
2017-07-25T00:12:22.302Z,15.10
2017-07-25T00:14:49.849Z,15.00
2017-07-25T00:17:17.385Z,15.00
2017-07-25T00:19:45.802Z,15.00
2017-07-25T00:22:13.366Z,15.00
2017-07-25T00:24:40.950Z,14.90
2017-07-25T00:27:08.474Z,14.80
2017-07-25T00:29:36.534Z,14.80
2017-07-25T00:32:04.221Z,14.90
2017-07-25T00:34:32.078Z,14.90
2017-07-25T00:36:59.606Z,14.80
2017-07-25T00:39:27.931Z,14.80
2017-07-25T00:41:55.494Z,14.80
2017-07-25T00:44:23.022Z,14.80
2017-07-25T00:46:50.554Z,14.80
2017-07-25T00:49:18.174Z,14.80
2017-07-25T00:51:45.852Z,14.80
2017-07-25T00:54:13.455Z,14.70
2017-07-25T00:56:41.888Z,14.70
2017-07-25T00:59:09.449Z,14.70
2017-07-25T01:01:37.005Z,14.70
2017-07-25T01:04:04.562Z,14.70
2017-07-25T01:06:32.119Z,14.70
2017-07-25T01:08:59.646Z,14.70
2017-07-25T01:11:28.067Z,14.60
2017-07-25T01:13:55.626Z,14.60
2017-07-25T01:16:23.290Z,14.60
2017-07-25T01:18:50.829Z,14.60
2017-07-25T01:21:18.389Z,14.60
2017-07-25T01:23:45.922Z,14.60
2017-07-25T01:26:14.250Z,14.60
2017-07-25T01:28:41.782Z,14.50
2017-07-25T01:31:09.314Z,14.50
2017-07-25T01:33:36.839Z,14.50
2017-07-25T01:36:04.369Z,14.60
2017-07-25T01:38:31.918Z,14.60
2017-07-25T01:40:59.522Z,14.60
2017-07-25T01:43:27.078Z,14.60
2017-07-25T01:45:54.616Z,14.60
2017-07-25T01:48:22.158Z,14.60
2017-07-25T01:50:50.482Z,14.50
2017-07-25T01:53:18.041Z,14.50
2017-07-25T01:55:45.607Z,14.50
2017-07-25T01:58:13.149Z,14.60
2017-07-25T02:00:40.722Z,14.60
2017-07-25T02:03:08.282Z,14.60
2017-07-25T02:05:35.949Z,14.60
2017-07-25T02:08:03.469Z,14.60
2017-07-25T02:10:31.023Z,14.60
2017-07-25T02:12:58.618Z,14.60
2017-07-25T02:15:26.183Z,14.60
2017-07-25T02:17:53.750Z,14.60
2017-07-25T02:20:21.302Z,14.50
2017-07-25T02:22:48.870Z,14.50
2017-07-25T02:25:16.410Z,14.60
2017-07-25T02:27:43.982Z,14.50
2017-07-25T02:30:11.507Z,14.60
2017-07-25T02:32:39.102Z,14.60
2017-07-25T02:35:06.670Z,14.60
2017-07-25T02:37:34.226Z,14.60
2017-07-25T02:40:01.800Z,14.60
2017-07-25T02:42:29.357Z,14.60
2017-07-25T02:44:56.913Z,14.60
2017-07-25T02:47:24.473Z,14.50
2017-07-25T02:49:52.014Z,14.50
2017-07-25T02:52:19.590Z,14.60
2017-07-25T02:54:47.252Z,14.50
2017-07-25T02:57:14.782Z,14.50
2017-07-25T02:59:43.102Z,14.50
2017-07-25T03:02:10.634Z,14.50
2017-07-25T03:04:38.166Z,14.50
2017-07-25T03:07:06.517Z,14.50
2017-07-25T03:09:34.058Z,14.50
2017-07-25T03:12:01.590Z,14.50
2017-07-25T03:14:29.174Z,14.50
2017-07-25T03:16:56.712Z,14.50
2017-07-25T03:19:24.249Z,14.60
2017-07-25T03:21:52.678Z,14.50
2017-07-25T03:24:20.209Z,14.50
2017-07-25T03:26:47.801Z,14.60
2017-07-25T03:29:15.357Z,14.50
2017-07-25T03:31:42.915Z,14.60
2017-07-25T03:34:10.481Z,14.60
2017-07-25T03:36:38.065Z,14.60
2017-07-25T03:39:05.618Z,14.60
2017-07-25T03:41:33.175Z,14.50
2017-07-25T03:44:00.705Z,14.50
2017-07-25T03:46:28.292Z,14.60
2017-07-25T03:48:55.821Z,14.60
2017-07-25T03:51:23.417Z,14.60
2017-07-25T03:53:50.953Z,14.60
2017-07-25T03:56:18.486Z,14.60
2017-07-25T03:58:46.777Z,14.50
2017-07-25T04:01:14.307Z,14.60
2017-07-25T04:03:41.936Z,14.60
2017-07-25T04:06:09.470Z,14.60
2017-07-25T04:08:37.063Z,14.60
2017-07-25T04:11:04.618Z,14.50
2017-07-25T04:13:32.181Z,14.50
2017-07-25T04:15:59.729Z,14.50
2017-07-25T04:18:27.298Z,14.50
2017-07-25T04:20:54.867Z,14.60
2017-07-25T04:23:22.402Z,14.60
2017-07-25T04:25:49.976Z,14.50
2017-07-25T04:28:17.510Z,14.50
2017-07-25T04:30:45.104Z,14.50
2017-07-25T04:33:12.765Z,14.50
2017-07-25T04:35:40.324Z,14.50
2017-07-25T04:38:07.884Z,14.50
2017-07-25T04:40:35.441Z,14.60
2017-07-25T04:43:03.002Z,14.60
2017-07-25T04:45:30.539Z,14.50
2017-07-25T04:47:58.093Z,14.60
2017-07-25T04:50:25.626Z,14.50
2017-07-25T04:52:53.245Z,14.50
2017-07-25T04:55:20.778Z,14.50
2017-07-25T04:57:48.339Z,14.50
2017-07-25T05:00:15.874Z,14.50
2017-07-25T05:02:44.207Z,14.50
2017-07-25T05:05:35.265Z,14.40
2017-07-25T05:08:02.824Z,14.40
2017-07-25T05:10:30.362Z,14.40
2017-07-25T05:12:57.920Z,14.40
2017-07-25T05:15:25.451Z,14.50
2017-07-25T05:17:53.006Z,14.50
2017-07-25T05:20:20.590Z,14.50
2017-07-25T05:22:48.170Z,14.50
2017-07-25T05:25:15.806Z,14.50
2017-07-25T05:27:43.353Z,14.50
2017-07-25T05:30:10.886Z,14.50
2017-07-25T05:32:39.334Z,14.50
2017-07-25T05:35:06.867Z,14.50
2017-07-25T05:37:34.432Z,14.50
2017-07-25T05:40:01.967Z,14.60
2017-07-25T05:42:29.549Z,14.60
2017-07-25T05:44:57.085Z,14.60
2017-07-25T05:47:24.635Z,14.60
2017-07-25T05:49:52.235Z,14.70
2017-07-25T05:52:19.775Z,14.70
2017-07-25T05:54:47.310Z,14.70
2017-07-25T05:57:15.642Z,14.80
2017-07-25T05:59:43.174Z,14.80
2017-07-25T06:02:10.756Z,14.80
2017-07-25T06:04:38.428Z,14.70
2017-07-25T06:07:05.986Z,14.70
2017-07-25T06:09:33.641Z,14.70
2017-07-25T06:12:01.213Z,14.70
2017-07-25T06:14:28.762Z,14.70
2017-07-25T06:16:56.295Z,14.70
2017-07-25T06:19:23.895Z,14.70
2017-07-25T06:21:51.430Z,14.80
2017-07-25T06:24:18.986Z,14.80
2017-07-25T06:26:46.574Z,14.80
2017-07-25T06:29:14.237Z,14.90
2017-07-25T06:31:41.766Z,14.90
2017-07-25T06:34:09.363Z,15.00
2017-07-25T06:36:36.913Z,15.00
2017-07-25T06:39:04.462Z,15.00
2017-07-25T06:41:31.998Z,15.00
2017-07-25T06:43:59.598Z,15.00
2017-07-25T06:46:27.131Z,15.10
2017-07-25T06:48:54.814Z,15.10
2017-07-25T06:51:22.379Z,15.20
2017-07-25T06:53:49.942Z,15.20
2017-07-25T06:56:17.474Z,15.30
2017-07-25T06:58:45.038Z,15.30
2017-07-25T07:01:12.627Z,15.30
2017-07-25T07:03:40.293Z,15.40
2017-07-25T07:06:07.834Z,15.50
2017-07-25T07:08:35.418Z,15.40
2017-07-25T07:11:02.966Z,15.50
2017-07-25T07:13:30.506Z,15.60
2017-07-25T07:15:58.091Z,15.60
2017-07-25T07:18:25.666Z,15.60
2017-07-25T07:20:53.218Z,15.60
2017-07-25T07:23:20.782Z,15.60
2017-07-25T07:25:48.311Z,15.50
2017-07-25T07:28:15.898Z,15.50
2017-07-25T07:30:43.427Z,15.40
2017-07-25T07:33:11.013Z,15.40
2017-07-25T07:35:38.542Z,15.30
2017-07-25T07:38:06.853Z,15.40
2017-07-25T07:40:34.417Z,15.40
2017-07-25T07:43:01.967Z,15.40
2017-07-25T07:45:29.490Z,15.40
2017-07-25T07:47:57.919Z,15.30
2017-07-25T07:50:25.454Z,15.30
2017-07-25T07:52:52.982Z,15.30
2017-07-25T07:55:20.506Z,15.40
2017-07-25T07:57:48.030Z,15.40
2017-07-25T08:00:15.570Z,15.50
2017-07-25T08:02:43.897Z,15.60
2017-07-25T08:05:11.462Z,15.50
2017-07-25T08:07:39.027Z,15.60
2017-07-25T08:10:06.677Z,15.50
2017-07-25T08:12:34.207Z,15.60
2017-07-25T08:15:01.771Z,15.60
2017-07-25T08:17:29.303Z,15.70
2017-07-25T08:19:56.925Z,15.70
2017-07-25T08:22:24.453Z,15.70
2017-07-25T08:24:52.054Z,15.80
2017-07-25T08:27:19.582Z,15.90
2017-07-25T08:29:47.165Z,16.10
2017-07-25T08:32:14.725Z,16.20
2017-07-25T08:34:42.259Z,16.20
2017-07-25T08:37:09.857Z,16.20
2017-07-25T08:39:37.385Z,16.10
2017-07-25T08:42:04.970Z,16.00
2017-07-25T08:44:32.530Z,16.00
2017-07-25T08:47:00.090Z,15.90
2017-07-25T08:49:27.754Z,15.80
2017-07-25T08:51:55.317Z,15.80
2017-07-25T08:54:22.977Z,15.60
2017-07-25T08:56:50.507Z,15.60
2017-07-25T08:59:18.055Z,15.60
2017-07-25T09:01:46.358Z,15.50
2017-07-25T09:04:13.894Z,15.40
2017-07-25T09:06:42.213Z,15.40
2017-07-25T09:09:09.772Z,15.40
2017-07-25T09:11:37.338Z,15.60
2017-07-25T09:14:04.874Z,15.70
2017-07-25T09:16:32.462Z,15.80
2017-07-25T09:19:00.017Z,16.00
2017-07-25T09:21:27.546Z,16.20
2017-07-25T09:23:55.086Z,16.30
2017-07-25T09:26:22.709Z,16.40
2017-07-25T09:28:50.305Z,16.50
2017-07-25T09:31:17.844Z,16.60
2017-07-25T09:33:45.490Z,16.60
2017-07-25T09:36:13.050Z,16.70
2017-07-25T09:38:40.612Z,16.80
2017-07-25T09:41:08.174Z,16.90
2017-07-25T09:43:35.730Z,17.00
2017-07-25T09:46:03.290Z,17.00
2017-07-25T09:48:30.862Z,17.20
2017-07-25T09:50:58.389Z,17.30
2017-07-25T09:53:25.988Z,17.50
2017-07-25T09:55:53.532Z,17.50
2017-07-25T09:58:21.062Z,17.50
2017-07-25T10:00:48.638Z,17.40
2017-07-25T10:03:16.161Z,17.30
2017-07-25T10:05:43.792Z,17.10
2017-07-25T10:08:11.450Z,17.10
2017-07-25T10:10:39.009Z,17.10
2017-07-25T10:13:06.566Z,17.40
2017-07-25T10:15:34.094Z,17.50
2017-07-25T10:18:01.694Z,17.70
2017-07-25T10:20:29.241Z,17.70
2017-07-25T10:22:56.789Z,18.10
2017-07-25T10:25:24.366Z,18.30
2017-07-25T10:27:52.027Z,18.20
2017-07-25T10:30:19.598Z,18.10
2017-07-25T10:32:47.163Z,17.80
2017-07-25T10:35:14.711Z,17.70
2017-07-25T10:37:42.254Z,17.70
2017-07-25T10:40:09.854Z,17.60
2017-07-25T10:42:37.389Z,17.60
2017-07-25T10:45:05.877Z,17.70
2017-07-25T10:47:33.406Z,17.90
2017-07-25T10:50:00.998Z,18.00
2017-07-25T10:52:28.530Z,17.90
2017-07-25T10:54:56.120Z,17.70
2017-07-25T10:57:23.879Z,17.80
2017-07-25T10:59:51.449Z,17.90
2017-07-25T11:02:19.010Z,18.10
2017-07-25T11:04:46.569Z,17.90
2017-07-25T11:07:14.238Z,17.80
2017-07-25T11:09:41.795Z,17.80
2017-07-25T11:12:09.330Z,17.80
2017-07-25T11:14:36.919Z,17.70
2017-07-25T11:17:04.446Z,17.70
2017-07-25T11:19:31.981Z,17.60
2017-07-25T11:21:59.602Z,17.60
2017-07-25T11:24:27.165Z,17.60
2017-07-25T11:26:54.718Z,17.60
2017-07-25T11:29:22.278Z,17.70
2017-07-25T11:31:49.835Z,17.80
2017-07-25T11:34:17.401Z,18.10
2017-07-25T11:36:44.930Z,18.20
2017-07-25T11:39:12.527Z,18.00
2017-07-25T11:41:40.085Z,18.00
2017-07-25T11:44:07.650Z,18.00
2017-07-25T11:46:35.202Z,18.10
2017-07-25T11:49:02.761Z,18.20
2017-07-25T11:51:30.321Z,18.20
2017-07-25T11:53:57.851Z,18.30
2017-07-25T11:56:25.430Z,18.30
2017-07-25T11:58:52.961Z,18.40
2017-07-25T12:01:21.263Z,18.50
2017-07-25T12:03:48.850Z,18.50
2017-07-25T12:06:16.406Z,18.50
2017-07-25T12:08:43.938Z,18.50
2017-07-25T12:11:11.478Z,18.40
2017-07-25T12:13:39.815Z,18.30
2017-07-25T12:16:07.369Z,18.30
2017-07-25T12:18:34.893Z,18.30
2017-07-25T12:21:13.045Z,18.40
2017-07-25T12:23:40.700Z,18.40
2017-07-25T12:26:08.258Z,18.50
2017-07-25T12:28:35.790Z,18.60
2017-07-25T12:31:03.320Z,18.50
2017-07-25T12:33:30.850Z,18.60
2017-07-25T12:35:58.401Z,18.70
2017-07-25T12:38:25.965Z,18.80
2017-07-25T12:40:53.626Z,18.70
2017-07-25T12:43:21.162Z,18.50
2017-07-25T12:45:48.762Z,18.30
2017-07-25T12:48:16.318Z,18.10
2017-07-25T12:50:43.869Z,17.90
2017-07-25T12:53:11.398Z,17.70
2017-07-25T12:55:38.985Z,17.60
2017-07-25T12:58:06.550Z,17.70
2017-07-25T13:00:45.782Z,17.80
2017-07-25T13:03:25.329Z,18.10
2017-07-25T13:05:52.890Z,18.30
2017-07-25T13:08:20.531Z,18.50
2017-07-25T13:10:48.211Z,18.70
2017-07-25T13:13:15.742Z,18.70
2017-07-25T13:15:43.346Z,18.70
2017-07-25T13:18:10.875Z,18.50
2017-07-25T13:20:38.462Z,18.50
2017-07-25T13:23:06.122Z,18.50
2017-07-25T13:25:33.739Z,18.50
2017-07-25T13:28:02.039Z,18.60
2017-07-25T13:30:29.634Z,18.60
2017-07-25T13:32:57.162Z,18.50
2017-07-25T13:35:24.687Z,18.40
2017-07-25T13:37:52.314Z,18.40
2017-07-25T13:40:19.865Z,18.40
2017-07-25T13:42:47.434Z,18.30
2017-07-25T13:45:14.990Z,18.30
2017-07-25T13:47:42.526Z,18.40
2017-07-25T13:50:10.114Z,18.40
2017-07-25T13:52:37.653Z,18.40
2017-07-25T13:55:05.185Z,18.50
2017-07-25T13:57:33.509Z,18.40
2017-07-25T14:00:01.059Z,18.40
2017-07-25T14:02:28.630Z,18.40
2017-07-25T14:04:56.166Z,18.30
2017-07-25T14:07:23.757Z,18.30
2017-07-25T14:09:51.282Z,18.30
2017-07-25T14:12:18.881Z,18.40
2017-07-25T14:14:46.414Z,18.30
2017-07-25T14:17:13.997Z,18.10
2017-07-25T14:19:41.556Z,18.00
2017-07-25T14:22:09.131Z,18.00
2017-07-25T14:24:36.677Z,17.90
2017-07-25T14:27:04.215Z,18.00
2017-07-25T14:29:31.905Z,18.10
2017-07-25T14:31:59.431Z,18.10
2017-07-25T14:34:27.032Z,18.20
2017-07-25T14:36:54.591Z,18.10
2017-07-25T14:39:22.243Z,18.00
2017-07-25T14:41:49.785Z,17.80
2017-07-25T14:44:17.334Z,17.70
2017-07-25T14:46:45.662Z,17.70
2017-07-25T14:49:13.211Z,17.70
2017-07-25T14:51:40.797Z,17.70
2017-07-25T14:54:08.341Z,17.60
2017-07-25T14:56:35.898Z,17.50
2017-07-25T14:59:03.426Z,17.40
2017-07-25T15:01:31.026Z,17.40
2017-07-25T15:03:58.569Z,17.40
2017-07-25T15:06:26.101Z,17.50
2017-07-25T15:08:53.675Z,17.40
2017-07-25T15:11:21.208Z,17.20
2017-07-25T15:13:49.535Z,17.10
2017-07-25T15:16:17.102Z,17.00
2017-07-25T15:18:44.640Z,17.10
2017-07-25T15:21:12.223Z,17.20
2017-07-25T15:23:39.774Z,17.20
2017-07-25T15:26:07.334Z,17.40
2017-07-25T15:28:34.894Z,17.50
2017-07-25T15:31:02.458Z,17.60
2017-07-25T15:33:29.990Z,17.70
2017-07-25T15:35:57.676Z,17.80
2017-07-25T15:38:25.239Z,17.80
2017-07-25T15:40:52.814Z,17.70
2017-07-25T15:43:20.371Z,17.70
2017-07-25T15:45:47.922Z,17.70
2017-07-25T15:48:15.443Z,17.80
2017-07-25T15:50:43.734Z,17.70
2017-07-25T15:53:11.428Z,17.70
2017-07-25T15:55:39.087Z,17.70
2017-07-25T15:58:06.650Z,17.70
2017-07-25T16:00:34.204Z,17.60
2017-07-25T16:03:01.750Z,17.60
2017-07-25T16:05:29.311Z,17.60
2017-07-25T16:07:56.957Z,17.50
2017-07-25T16:10:25.276Z,17.40
2017-07-25T16:12:52.835Z,17.40
2017-07-25T16:15:20.366Z,17.50
2017-07-25T16:17:47.957Z,17.50
2017-07-25T16:20:15.522Z,17.50
2017-07-25T16:22:43.085Z,17.40
2017-07-25T16:25:10.618Z,17.40
2017-07-25T16:27:38.207Z,17.40
2017-07-25T16:30:05.761Z,17.30
2017-07-25T16:32:33.289Z,17.30
2017-07-25T16:35:00.882Z,17.20
2017-07-25T16:37:28.413Z,17.30
2017-07-25T16:39:55.969Z,17.30
2017-07-25T16:42:23.507Z,17.20
2017-07-25T16:44:51.121Z,17.30
2017-07-25T16:47:18.686Z,17.20
2017-07-25T16:49:46.217Z,17.20
2017-07-25T16:52:13.810Z,17.30
2017-07-25T16:54:41.378Z,17.30
2017-07-25T16:57:09.045Z,17.20
2017-07-25T16:59:36.576Z,17.20
2017-07-25T17:02:04.162Z,17.10
2017-07-25T17:04:31.713Z,16.90
2017-07-25T17:06:59.244Z,16.80
2017-07-25T17:09:26.802Z,16.80
2017-07-25T17:11:55.090Z,16.60
2017-07-25T17:14:22.646Z,16.50
2017-07-25T17:16:50.182Z,16.50
2017-07-25T17:19:18.517Z,16.30
2017-07-25T17:21:46.070Z,16.20
2017-07-25T17:24:13.738Z,16.20
2017-07-25T17:26:41.302Z,16.20
2017-07-25T17:29:08.857Z,16.20
2017-07-25T17:31:36.429Z,16.20
2017-07-25T17:34:04.078Z,16.10
2017-07-25T17:36:31.650Z,16.10
2017-07-25T17:38:59.302Z,16.10
2017-07-25T17:41:26.874Z,16.00
2017-07-25T17:43:54.407Z,16.10
2017-07-25T17:46:22.295Z,15.90
2017-07-25T17:48:49.858Z,15.90
2017-07-25T17:51:17.417Z,15.90
2017-07-25T17:53:44.979Z,15.80
2017-07-25T17:56:12.506Z,15.90
2017-07-25T17:58:40.102Z,15.80
2017-07-25T18:01:07.629Z,15.80
2017-07-25T18:03:35.222Z,15.70
2017-07-25T18:06:02.784Z,15.70
2017-07-25T18:08:30.351Z,15.70
2017-07-25T18:10:57.882Z,15.60
2017-07-25T18:13:25.412Z,15.60
2017-07-25T18:15:52.937Z,15.60
2017-07-25T18:18:20.490Z,15.50
2017-07-25T18:20:48.025Z,15.50
2017-07-25T18:23:15.606Z,15.40
2017-07-25T18:25:43.148Z,15.40
2017-07-25T18:28:10.731Z,15.30
2017-07-25T18:30:38.306Z,15.30
2017-07-25T18:33:05.882Z,15.30
2017-07-25T18:35:33.529Z,15.30
2017-07-25T18:38:01.063Z,15.20
2017-07-25T18:40:28.619Z,15.30
2017-07-25T18:42:56.193Z,15.30
2017-07-25T18:45:23.726Z,15.30
2017-07-25T18:47:51.258Z,15.20
2017-07-25T18:50:18.882Z,15.20
2017-07-25T18:52:46.449Z,15.30
2017-07-25T18:55:14.006Z,15.20
2017-07-25T18:57:41.673Z,15.10
2017-07-25T19:00:09.198Z,15.10
2017-07-25T19:02:36.750Z,15.10
2017-07-25T19:05:04.277Z,15.10
2017-07-25T19:07:31.906Z,15.00
2017-07-25T19:09:59.463Z,14.90
2017-07-25T19:12:27.026Z,14.90
2017-07-25T19:14:54.565Z,14.90
2017-07-25T19:17:22.162Z,14.90
2017-07-25T19:19:49.708Z,14.80
2017-07-25T19:22:17.278Z,14.80
2017-07-25T19:24:44.806Z,14.90
2017-07-25T19:27:12.342Z,14.90
2017-07-25T19:29:40.680Z,14.80
2017-07-25T19:32:08.205Z,14.80
2017-07-25T19:34:35.770Z,14.70
2017-07-25T19:37:03.309Z,14.70
2017-07-25T19:39:31.754Z,14.60
2017-07-25T19:41:59.283Z,14.60
2017-07-25T19:44:26.835Z,14.60
2017-07-25T19:46:54.409Z,14.60
2017-07-25T19:49:21.982Z,14.60
2017-07-25T19:51:49.527Z,14.60
2017-07-25T19:54:17.102Z,14.60
2017-07-25T19:56:44.666Z,14.60
2017-07-25T19:59:12.224Z,14.60
2017-07-25T20:01:39.758Z,14.60
2017-07-25T20:04:07.346Z,14.50
2017-07-25T20:06:34.886Z,14.50
2017-07-25T20:09:02.418Z,14.50
2017-07-25T20:11:30.718Z,14.50
2017-07-25T20:13:58.249Z,14.50
2017-07-25T20:16:26.585Z,14.50
2017-07-25T20:18:54.125Z,14.50
2017-07-25T20:21:21.697Z,14.50
2017-07-25T20:23:49.262Z,14.50
2017-07-25T20:26:16.828Z,14.50
2017-07-25T20:28:44.365Z,14.60
2017-07-25T20:31:11.936Z,14.50
2017-07-25T20:33:39.613Z,14.50
2017-07-25T20:36:07.150Z,14.50
2017-07-25T20:38:40.998Z,14.50
2017-07-25T20:41:08.535Z,14.50
2017-07-25T20:43:36.071Z,14.40
2017-07-25T20:46:03.613Z,14.50
2017-07-25T20:48:31.967Z,14.50
2017-07-25T20:50:59.512Z,14.40
2017-07-25T20:53:27.097Z,14.40
2017-07-25T20:55:54.638Z,14.40
2017-07-25T20:58:22.171Z,14.40
2017-07-25T21:00:49.704Z,14.50
2017-07-25T21:03:17.300Z,14.50
2017-07-25T21:05:44.835Z,14.50
2017-07-25T21:08:12.423Z,14.40
2017-07-25T21:10:39.958Z,14.40
2017-07-25T21:13:07.551Z,14.40
2017-07-25T21:15:35.074Z,14.40
2017-07-25T21:18:02.665Z,14.40
2017-07-25T21:20:30.198Z,14.40
2017-07-25T21:22:57.722Z,14.50
2017-07-25T21:25:25.351Z,14.40
2017-07-25T21:27:52.880Z,14.40
2017-07-25T21:30:20.506Z,14.40
2017-07-25T21:32:48.140Z,14.30
2017-07-25T21:35:15.793Z,14.30
2017-07-25T21:37:43.357Z,14.40
2017-07-25T21:40:10.914Z,14.30
2017-07-25T21:42:38.442Z,14.40
2017-07-25T21:45:06.737Z,14.30
2017-07-25T21:47:34.316Z,14.30
2017-07-25T21:50:01.864Z,14.20
2017-07-25T21:52:29.442Z,14.30
2017-07-25T21:54:57.014Z,14.20
2017-07-25T21:57:24.570Z,14.20
2017-07-25T21:59:52.112Z,14.20
2017-07-25T22:02:41.367Z,14.30
2017-07-25T22:05:09.017Z,14.20
2017-07-25T22:07:36.553Z,14.20
2017-07-25T22:10:04.093Z,14.20
2017-07-25T22:12:31.669Z,14.10
2017-07-25T22:14:59.228Z,14.20
2017-07-25T22:17:26.807Z,14.10
2017-07-25T22:19:55.151Z,14.10
2017-07-25T22:22:22.724Z,14.10
2017-07-25T22:24:50.267Z,14.10
2017-07-25T22:27:17.851Z,14.10
2017-07-25T22:29:45.397Z,14.00
2017-07-25T22:32:13.040Z,14.00
2017-07-25T22:34:40.612Z,14.00
2017-07-25T22:37:08.154Z,14.00
2017-07-25T22:39:35.719Z,13.90
2017-07-25T22:42:03.259Z,13.90
2017-07-25T22:44:30.832Z,14.00
2017-07-25T22:46:58.366Z,14.00
2017-07-25T22:49:26.690Z,14.00
2017-07-25T22:51:54.222Z,14.00
2017-07-25T22:54:21.761Z,14.00
2017-07-25T22:56:50.085Z,13.90
2017-07-25T22:59:17.615Z,13.90
2017-07-25T23:01:45.201Z,13.90
2017-07-25T23:04:12.739Z,14.00
2017-07-25T23:06:40.335Z,14.00
2017-07-25T23:09:07.895Z,13.90
2017-07-25T23:11:35.445Z,13.90
2017-07-25T23:14:02.974Z,13.90
2017-07-25T23:16:30.556Z,13.90
2017-07-25T23:18:58.099Z,13.90
2017-07-25T23:21:25.673Z,13.90
2017-07-25T23:23:53.257Z,13.90
2017-07-25T23:26:20.867Z,13.90
2017-07-25T23:28:49.187Z,13.90
2017-07-25T23:31:16.709Z,13.90
2017-07-25T23:33:45.006Z,13.90
2017-07-25T23:36:12.546Z,13.90
2017-07-25T23:38:40.979Z,14.00
2017-07-25T23:41:08.531Z,13.90
2017-07-25T23:43:36.130Z,13.90
2017-07-25T23:46:03.761Z,14.00
2017-07-25T23:48:31.338Z,14.00
2017-07-25T23:50:58.894Z,13.90
2017-07-25T23:53:26.546Z,14.00
2017-07-25T23:55:54.090Z,14.00
2017-07-25T23:58:21.662Z,14.00
